Time;durP1;ratioP1;P1;durP2;ratioP2;P2;SDS_P1;SDS_P2;PMS_P1;PMS_P2;Temp;Humidity;BMP_temperature;BMP_pressure;BME280_temperature;BME280_humidity;BME280_pressure;Samples;Min_cycle;Max_cycle;Signal;HPM_P1;HPM_P2
2021/11/21 00:01:59;;;;;;;1.77;0.20;;;;;;;;;;5092870;28;20024;-61
2021/11/21 00:04:26;;;;;;;0.70;0.30;;;;;;;;;;5092457;28;20176;-61
2021/11/21 00:06:53;;;;;;;1.70;0.40;;;;;;;;;;5091806;28;20370;-61
2021/11/21 00:09:20;;;;;;;0.63;0.20;;;;;;;;;;5092691;28;20062;-61
2021/11/21 00:11:47;;;;;;;0.30;0.20;;;;;;;;;;5090197;28;20409;-61
2021/11/21 00:14:14;;;;;;;1.07;0.40;;;;;;;;;;5087011;28;20036;-62
2021/11/21 00:16:41;;;;;;;1.50;0.47;;;;;;;;;;5087291;28;20089;-61
2021/11/21 00:19:08;;;;;;;2.50;0.50;;;;;;;;;;5086903;28;20109;-62
2021/11/21 00:21:35;;;;;;;0.87;0.50;;;;;;;;;;5088524;28;20028;-61
2021/11/21 00:24:02;;;;;;;0.47;0.30;;;;;;;;;;5092926;28;20374;-61
2021/11/21 00:26:29;;;;;;;0.73;0.33;;;;;;;;;;5092340;28;20111;-62
2021/11/21 00:28:55;;;;;;;6.70;0.70;;;;;;;;;;5092639;28;20066;-61
2021/11/21 00:31:22;;;;;;;3.30;1.00;;;;;;;;;;5092400;28;20028;-62
2021/11/21 00:33:49;;;;;;;3.07;0.90;;;;;;;;;;5090927;28;20020;-61
2021/11/21 00:36:16;;;;;;;3.23;0.90;;;;;;;;;;5086216;28;20461;-61
2021/11/21 00:38:43;;;;;;;5.97;1.60;;;;;;;;;;5087022;28;20031;-62
2021/11/21 00:41:10;;;;;;;5.93;1.80;;;;;;;;;;5087072;28;20032;-62
2021/11/21 00:43:37;;;;;;;4.87;2.17;;;;;;;;;;5087564;28;20028;-61
2021/11/21 00:46:04;;;;;;;4.90;2.10;;;;;;;;;;5092368;28;20021;-61
2021/11/21 00:48:31;;;;;;;5.73;1.17;;;;;;;;;;5092304;28;20356;-61
2021/11/21 00:51:01;;;;;;;3.53;1.63;;;;;;;;;;5091894;28;20089;-62
2021/11/21 00:53:28;;;;;;;4.80;2.33;;;;;;;;;;5092378;28;20024;-61
2021/11/21 00:56:04;;;;;;;5.10;1.83;;;;;;;;;;5090873;28;20047;-61
2021/11/21 00:58:35;;;;;;;6.40;1.17;;;;;;;;;;5086800;28;20502;-62
2021/11/21 01:01:03;;;;;;;2.63;0.60;;;;;;;;;;5086772;28;20062;-61
2021/11/21 01:03:30;;;;;;;3.27;0.53;;;;;;;;;;5088304;28;20020;-61
2021/11/21 01:05:57;;;;;;;3.33;1.00;;;;;;;;;;5091602;28;20027;-61
2021/11/21 01:08:24;;;;;;;4.90;1.80;;;;;;;;;;5096150;28;20036;-61
2021/11/21 01:10:53;;;;;;;7.13;1.27;;;;;;;;;;5096130;28;20028;-61
2021/11/21 01:13:21;;;;;;;2.97;1.10;;;;;;;;;;5096041;28;20020;-62
2021/11/21 01:15:48;;;;;;;4.23;1.50;;;;;;;;;;5095589;28;20051;-61
2021/11/21 01:18:15;;;;;;;4.60;1.53;;;;;;;;;;5094153;28;20487;-61
2021/11/21 01:20:42;;;;;;;5.27;1.80;;;;;;;;;;5090417;28;20016;-61
2021/11/21 01:23:13;;;;;;;2.77;0.80;;;;;;;;;;5090610;28;20024;-61
2021/11/21 01:25:41;;;;;;;2.33;0.87;;;;;;;;;;5090389;28;20153;-61
2021/11/21 01:28:08;;;;;;;0.97;0.53;;;;;;;;;;5091433;28;20016;-61
2021/11/21 01:30:35;;;;;;;1.57;0.40;;;;;;;;;;5095653;28;20023;-61
2021/11/21 01:33:02;;;;;;;2.93;0.40;;;;;;;;;;5095543;28;20024;-61
2021/11/21 01:35:30;;;;;;;0.30;0.20;;;;;;;;;;5094972;28;20032;-61
2021/11/21 01:37:57;;;;;;;3.00;0.80;;;;;;;;;;5095588;28;20542;-62
2021/11/21 01:40:25;;;;;;;0.87;0.50;;;;;;;;;;5094378;28;20024;-61
2021/11/21 01:42:52;;;;;;;2.47;0.83;;;;;;;;;;5090045;28;20019;-62
2021/11/21 01:45:20;;;;;;;6.97;1.30;;;;;;;;;;5089817;28;20028;-62
2021/11/21 01:47:47;;;;;;;1.60;0.90;;;;;;;;;;5090009;28;20024;-61
2021/11/21 01:50:16;;;;;;;3.40;0.70;;;;;;;;;;5089979;28;20691;-61
2021/11/21 01:52:44;;;;;;;3.30;0.90;;;;;;;;;;5095323;28;20024;-61
2021/11/21 01:55:11;;;;;;;6.93;0.70;;;;;;;;;;5095451;28;20032;-62
2021/11/21 01:57:39;;;;;;;1.93;0.60;;;;;;;;;;5094831;28;20028;-62
2021/11/21 02:00:09;;;;;;;2.00;0.50;;;;;;;;;;5095006;28;20020;-61
2021/11/21 02:02:36;;;;;;;2.20;0.97;;;;;;;;;;5093803;28;20024;-61
2021/11/21 02:05:04;;;;;;;3.17;0.67;;;;;;;;;;5089331;28;20032;-62
2021/11/21 02:07:30;;;;;;;5.73;1.17;;;;;;;;;;5089281;28;20032;-61
2021/11/21 02:09:58;;;;;;;4.67;1.40;;;;;;;;;;5089264;28;20570;-62
2021/11/21 02:12:25;;;;;;;2.97;1.17;;;;;;;;;;5089678;28;20471;-62
2021/11/21 02:14:52;;;;;;;2.33;0.77;;;;;;;;;;5093868;28;20021;-61
2021/11/21 02:17:19;;;;;;;2.03;0.80;;;;;;;;;;5094889;28;20020;-62
2021/11/21 02:19:45;;;;;;;3.93;1.10;;;;;;;;;;5094400;28;20020;-61
2021/11/21 02:22:12;;;;;;;2.53;0.90;;;;;;;;;;5094936;28;20020;-61
2021/11/21 02:24:39;;;;;;;3.00;1.00;;;;;;;;;;5094168;28;20061;-61
2021/11/21 02:27:06;;;;;;;5.13;0.80;;;;;;;;;;5088865;28;20378;-62
2021/11/21 02:29:32;;;;;;;3.27;0.60;;;;;;;;;;5089200;28;20020;-62
2021/11/21 02:31:59;;;;;;;2.63;0.77;;;;;;;;;;5089255;28;20144;-61
2021/11/21 02:34:26;;;;;;;3.00;0.80;;;;;;;;;;5088873;28;20036;-62
2021/11/21 02:36:53;;;;;;;10.83;1.97;;;;;;;;;;5094249;28;20496;-61
2021/11/21 02:39:20;;;;;;;8.07;0.80;;;;;;;;;;5094357;28;20080;-62
2021/11/21 02:41:47;;;;;;;3.77;0.70;;;;;;;;;;5094064;28;20488;-62
2021/11/21 02:44:13;;;;;;;4.60;0.80;;;;;;;;;;5094217;28;20028;-62
2021/11/21 02:46:40;;;;;;;4.03;1.63;;;;;;;;;;5085567;28;20549;-62
2021/11/21 02:49:07;;;;;;;3.73;0.80;;;;;;;;;;5077278;28;20048;-63
2021/11/21 02:51:34;;;;;;;1.90;0.70;;;;;;;;;;5069106;28;20028;-61
2021/11/21 02:54:01;;;;;;;2.47;0.70;;;;;;;;;;5085065;28;20044;-61
2021/11/21 02:56:27;;;;;;;1.97;0.80;;;;;;;;;;5074979;28;20031;-61
2021/11/21 02:58:54;;;;;;;3.00;1.00;;;;;;;;;;5093129;28;20024;-62
2021/11/21 03:01:25;;;;;;;5.80;1.20;;;;;;;;;;5079528;28;20384;-62
2021/11/21 03:03:53;;;;;;;2.57;1.20;;;;;;;;;;5088788;28;20120;-61
2021/11/21 03:06:20;;;;;;;2.07;1.03;;;;;;;;;;5083331;28;20012;-62
2021/11/21 03:08:47;;;;;;;3.50;1.40;;;;;;;;;;5074284;28;20036;-63
2021/11/21 03:11:27;;;;;;;4.10;1.17;;;;;;;;;;5078063;28;20028;-62
2021/11/21 03:13:54;;;;;;;2.33;1.03;;;;;;;;;;5075558;28;20097;-62
2021/11/21 03:16:21;;;;;;;3.53;1.50;;;;;;;;;;5072848;28;20475;-62
2021/11/21 03:18:47;;;;;;;5.43;2.10;;;;;;;;;;5079686;28;20039;-63
2021/11/21 03:21:14;;;;;;;7.80;1.90;;;;;;;;;;5073357;28;20020;-62
2021/11/21 03:23:41;;;;;;;4.77;1.93;;;;;;;;;;5089713;28;20020;-62
2021/11/21 03:26:08;;;;;;;5.77;2.43;;;;;;;;;;5078910;28;20024;-64
2021/11/21 03:28:35;;;;;;;5.20;1.87;;;;;;;;;;5085512;28;20030;-63
2021/11/21 03:31:02;;;;;;;6.47;1.93;;;;;;;;;;5082180;28;20028;-62
2021/11/21 03:33:30;;;;;;;2.57;1.30;;;;;;;;;;5072676;28;20035;-61
2021/11/21 03:35:56;;;;;;;2.23;1.10;;;;;;;;;;5079255;28;20040;-61
2021/11/21 03:38:23;;;;;;;2.00;1.07;;;;;;;;;;5079888;28;20024;-61
2021/11/21 03:40:50;;;;;;;6.63;1.87;;;;;;;;;;5078974;28;20028;-62
2021/11/21 03:43:17;;;;;;;5.57;2.30;;;;;;;;;;5083777;28;20020;-63
2021/11/21 03:45:44;;;;;;;5.17;2.20;;;;;;;;;;5092304;28;20064;-61
2021/11/21 03:48:11;;;;;;;4.73;2.30;;;;;;;;;;5090161;28;20417;-61
2021/11/21 03:50:37;;;;;;;6.10;2.20;;;;;;;;;;5089875;28;20048;-62
2021/11/21 03:53:05;;;;;;;3.50;1.97;;;;;;;;;;5090376;28;20017;-61
2021/11/21 03:55:32;;;;;;;4.57;2.40;;;;;;;;;;5086921;28;20039;-61
2021/11/21 03:57:59;;;;;;;7.17;2.50;;;;;;;;;;5087450;28;20020;-62
2021/11/21 04:00:26;;;;;;;6.23;2.37;;;;;;;;;;5087439;28;20020;-61
2021/11/21 04:02:55;;;;;;;4.80;2.00;;;;;;;;;;5087351;28;20020;-61
2021/11/21 04:05:23;;;;;;;4.33;1.60;;;;;;;;;;5091642;28;20039;-61
2021/11/21 04:07:50;;;;;;;5.60;1.73;;;;;;;;;;5092495;28;20016;-61
2021/11/21 04:10:17;;;;;;;3.67;2.00;;;;;;;;;;5092468;28;20075;-61
2021/11/21 04:12:44;;;;;;;6.23;2.20;;;;;;;;;;5092782;28;20047;-61
2021/11/21 04:15:11;;;;;;;3.77;1.50;;;;;;;;;;5092472;28;20028;-61
2021/11/21 04:17:38;;;;;;;6.70;2.10;;;;;;;;;;5087836;28;20465;-61
2021/11/21 04:20:06;;;;;;;5.20;1.87;;;;;;;;;;5087158;28;20116;-61
2021/11/21 04:22:33;;;;;;;7.30;2.00;;;;;;;;;;5086678;28;20081;-62
2021/11/21 04:25:00;;;;;;;6.40;1.87;;;;;;;;;;5086483;28;20024;-62
2021/11/21 04:27:27;;;;;;;4.73;1.37;;;;;;;;;;5091039;28;20498;-61
2021/11/21 04:29:57;;;;;;;7.37;1.70;;;;;;;;;;5092378;28;20035;-61
2021/11/21 04:32:24;;;;;;;3.53;1.37;;;;;;;;;;5092343;28;20035;-61
2021/11/21 04:34:51;;;;;;;1.97;0.90;;;;;;;;;;5092335;28;20064;-61
2021/11/21 04:37:19;;;;;;;2.70;1.17;;;;;;;;;;5091411;28;20140;-61
2021/11/21 04:39:46;;;;;;;5.90;0.93;;;;;;;;;;5088001;28;20072;-61
2021/11/21 04:42:12;;;;;;;2.13;0.90;;;;;;;;;;5086778;28;20032;-61
2021/11/21 04:44:39;;;;;;;1.93;0.90;;;;;;;;;;5086920;28;20020;-61
2021/11/21 04:47:06;;;;;;;2.77;1.10;;;;;;;;;;5086745;28;20034;-61
2021/11/21 04:49:33;;;;;;;2.83;1.00;;;;;;;;;;5090272;28;20016;-61
2021/11/21 04:52:00;;;;;;;3.00;1.20;;;;;;;;;;5092008;28;20497;-61
2021/11/21 04:54:26;;;;;;;4.83;1.40;;;;;;;;;;5091616;28;20036;-61
2021/11/21 04:56:53;;;;;;;3.07;1.13;;;;;;;;;;5092203;28;20462;-61
2021/11/21 04:59:20;;;;;;;3.13;1.23;;;;;;;;;;5091815;28;20024;-61
2021/11/21 05:01:48;;;;;;;2.97;1.37;;;;;;;;;;5088370;28;20108;-61
2021/11/21 05:04:15;;;;;;;3.87;1.40;;;;;;;;;;5086612;28;20052;-61
2021/11/21 05:06:42;;;;;;;9.43;2.63;;;;;;;;;;5086711;28;20032;-61
2021/11/21 05:09:09;;;;;;;5.23;1.90;;;;;;;;;;5085944;28;20099;-62
2021/11/21 05:11:36;;;;;;;4.70;1.83;;;;;;;;;;5088375;28;20020;-62
2021/11/21 05:14:06;;;;;;;8.57;1.40;;;;;;;;;;5090018;28;20530;-61
2021/11/21 05:16:34;;;;;;;3.57;1.40;;;;;;;;;;5090063;28;20534;-61
2021/11/21 05:19:01;;;;;;;4.27;1.30;;;;;;;;;;5090040;28;20107;-61
2021/11/21 05:21:28;;;;;;;4.00;1.30;;;;;;;;;;5090099;28;20073;-61
2021/11/21 05:23:55;;;;;;;2.53;1.13;;;;;;;;;;5086369;28;20028;-61
2021/11/21 05:26:23;;;;;;;6.70;1.40;;;;;;;;;;5085595;28;20073;-62
2021/11/21 05:28:50;;;;;;;6.00;1.20;;;;;;;;;;5086310;28;20027;-61
2021/11/21 05:31:17;;;;;;;3.27;1.30;;;;;;;;;;5086351;28;20020;-61
2021/11/21 05:33:43;;;;;;;4.20;1.50;;;;;;;;;;5088972;28;20039;-62
2021/11/21 05:36:10;;;;;;;8.57;1.57;;;;;;;;;;5091662;28;20035;-61
2021/11/21 05:38:37;;;;;;;2.00;1.10;;;;;;;;;;5091261;28;20020;-61
2021/11/21 05:41:03;;;;;;;4.03;1.23;;;;;;;;;;5091053;28;20027;-61
2021/11/21 05:43:30;;;;;;;3.23;1.13;;;;;;;;;;5091714;28;20024;-61
2021/11/21 05:45:57;;;;;;;4.57;1.20;;;;;;;;;;5088315;28;20478;-61
2021/11/21 05:48:24;;;;;;;2.57;0.90;;;;;;;;;;5086399;28;20032;-60
2021/11/21 05:50:51;;;;;;;3.13;1.30;;;;;;;;;;5088238;28;20382;-61
2021/11/21 05:53:18;;;;;;;2.27;1.20;;;;;;;;;;5089959;28;20104;-60
2021/11/21 05:55:44;;;;;;;3.33;1.37;;;;;;;;;;5092094;28;20028;-60
2021/11/21 05:58:11;;;;;;;4.33;1.50;;;;;;;;;;5094939;28;20092;-61
2021/11/21 06:00:38;;;;;;;1.33;0.90;;;;;;;;;;5095279;28;20024;-61
2021/11/21 06:03:05;;;;;;;2.40;1.40;;;;;;;;;;5095177;28;20382;-63
2021/11/21 06:05:32;;;;;;;2.17;0.93;;;;;;;;;;5095112;28;20020;-62
2021/11/21 06:07:59;;;;;;;4.33;1.20;;;;;;;;;;5092179;28;20046;-61
2021/11/21 06:10:26;;;;;;;6.43;1.20;;;;;;;;;;5089247;28;20047;-61
2021/11/21 06:12:53;;;;;;;2.20;1.03;;;;;;;;;;5089507;28;20027;-61
2021/11/21 06:15:19;;;;;;;2.33;0.90;;;;;;;;;;5089509;28;20032;-62
2021/11/21 06:17:46;;;;;;;2.90;1.00;;;;;;;;;;5091533;28;20020;-61
2021/11/21 06:20:13;;;;;;;2.37;0.93;;;;;;;;;;5094826;28;20034;-61
2021/11/21 06:22:40;;;;;;;1.67;0.90;;;;;;;;;;5093780;28;20371;-61
2021/11/21 06:25:08;;;;;;;4.23;1.33;;;;;;;;;;5094641;28;20052;-61
2021/11/21 06:27:35;;;;;;;4.40;1.10;;;;;;;;;;5094227;28;20028;-61
2021/11/21 06:30:01;;;;;;;1.50;1.03;;;;;;;;;;5091937;28;20032;-61
2021/11/21 06:32:28;;;;;;;1.77;0.73;;;;;;;;;;5089257;28;20047;-61
2021/11/21 06:34:55;;;;;;;2.37;1.00;;;;;;;;;;5088900;28;20506;-61
2021/11/21 06:37:22;;;;;;;0.97;0.60;;;;;;;;;;5089268;28;20047;-61
2021/11/21 06:39:49;;;;;;;1.20;0.60;;;;;;;;;;5090700;28;20475;-61
2021/11/21 06:42:15;;;;;;;2.00;0.90;;;;;;;;;;5093894;28;20012;-61
2021/11/21 06:44:42;;;;;;;2.13;0.93;;;;;;;;;;5094413;28;20012;-61
2021/11/21 06:47:09;;;;;;;4.13;0.90;;;;;;;;;;5094169;28;20099;-61
2021/11/21 06:49:36;;;;;;;3.20;1.03;;;;;;;;;;5094291;28;20028;-61
2021/11/21 06:52:03;;;;;;;2.70;0.70;;;;;;;;;;5092150;28;20507;-62
2021/11/21 06:54:30;;;;;;;1.93;1.00;;;;;;;;;;5088700;28;20028;-61
2021/11/21 06:56:57;;;;;;;5.03;1.00;;;;;;;;;;5087894;28;20024;-62
2021/11/21 06:59:23;;;;;;;3.37;0.80;;;;;;;;;;5088616;28;20083;-62
2021/11/21 07:01:50;;;;;;;0.97;0.57;;;;;;;;;;5089450;28;20036;-61
2021/11/21 07:04:17;;;;;;;1.87;0.90;;;;;;;;;;5093944;28;20024;-61
2021/11/21 07:06:46;;;;;;;1.30;0.60;;;;;;;;;;5094045;28;20020;-61
2021/11/21 07:09:15;;;;;;;0.80;0.40;;;;;;;;;;5093793;28;20122;-61
2021/11/21 07:11:42;;;;;;;1.63;0.70;;;;;;;;;;5093115;28;20520;-61
2021/11/21 07:14:12;;;;;;;2.17;0.87;;;;;;;;;;5092006;28;20024;-61
2021/11/21 07:16:39;;;;;;;0.63;0.53;;;;;;;;;;5088469;28;20383;-62
2021/11/21 07:19:06;;;;;;;1.57;0.67;;;;;;;;;;5088368;28;20020;-61
2021/11/21 07:21:33;;;;;;;2.03;0.80;;;;;;;;;;5088290;28;20099;-62
2021/11/21 07:24:00;;;;;;;2.50;0.60;;;;;;;;;;5089222;28;20074;-61
2021/11/21 07:26:26;;;;;;;0.67;0.63;;;;;;;;;;5092758;28;20031;-61
2021/11/21 07:28:53;;;;;;;1.90;0.70;;;;;;;;;;5093694;28;20088;-61
2021/11/21 07:31:20;;;;;;;1.03;0.60;;;;;;;;;;5093279;28;20028;-61
2021/11/21 07:33:47;;;;;;;0.77;0.53;;;;;;;;;;5093639;28;20031;-61
2021/11/21 07:36:14;;;;;;;1.50;0.77;;;;;;;;;;5091915;28;21427;-62
2021/11/21 07:38:41;;;;;;;1.60;0.90;;;;;;;;;;5087914;28;20043;-61
2021/11/21 07:41:08;;;;;;;0.77;0.43;;;;;;;;;;5087680;28;20031;-61
2021/11/21 07:43:35;;;;;;;0.83;0.60;;;;;;;;;;5087862;28;20077;-61
2021/11/21 07:46:02;;;;;;;1.63;0.80;;;;;;;;;;5088467;28;20093;-61
2021/11/21 07:48:29;;;;;;;2.33;0.80;;;;;;;;;;5092941;28;20047;-61
2021/11/21 07:50:57;;;;;;;1.33;0.70;;;;;;;;;;5093612;28;20542;-61
2021/11/21 07:53:24;;;;;;;1.13;0.67;;;;;;;;;;5092978;28;20081;-61
2021/11/21 07:55:51;;;;;;;2.17;0.63;;;;;;;;;;5092182;28;20067;-61
2021/11/21 07:58:18;;;;;;;3.03;0.80;;;;;;;;;;5091878;28;20016;-62
2021/11/21 08:00:44;;;;;;;1.33;0.80;;;;;;;;;;5087497;28;20077;-63
2021/11/21 08:03:11;;;;;;;0.53;0.40;;;;;;;;;;5087599;28;20098;-61
2021/11/21 08:05:38;;;;;;;1.60;0.83;;;;;;;;;;5087499;28;20060;-61
2021/11/21 08:08:05;;;;;;;1.97;0.90;;;;;;;;;;5087591;28;20055;-61
2021/11/21 08:10:32;;;;;;;1.10;0.70;;;;;;;;;;5092832;28;20379;-61
2021/11/21 08:12:59;;;;;;;0.70;0.50;;;;;;;;;;5091496;28;20058;-61
2021/11/21 08:15:26;;;;;;;4.63;0.70;;;;;;;;;;5092687;28;20039;-61
2021/11/21 08:17:53;;;;;;;1.17;0.60;;;;;;;;;;5092742;28;20097;-61
2021/11/21 08:20:21;;;;;;;3.17;0.60;;;;;;;;;;5091825;28;20016;-61
2021/11/21 08:22:48;;;;;;;1.43;0.80;;;;;;;;;;5086935;28;20476;-61
2021/11/21 08:25:15;;;;;;;1.60;0.60;;;;;;;;;;5086897;28;20059;-61
2021/11/21 08:27:41;;;;;;;1.53;0.80;;;;;;;;;;5086796;28;20024;-61
2021/11/21 08:30:09;;;;;;;2.70;0.90;;;;;;;;;;5087039;28;20024;-61
2021/11/21 08:32:36;;;;;;;3.90;0.97;;;;;;;;;;5092660;28;20554;-62
2021/11/21 08:35:03;;;;;;;2.07;0.90;;;;;;;;;;5092325;28;20111;-62
2021/11/21 08:37:30;;;;;;;1.33;0.80;;;;;;;;;;5092406;28;20020;-62
2021/11/21 08:39:57;;;;;;;2.20;0.80;;;;;;;;;;5092232;28;20023;-62
2021/11/21 08:42:24;;;;;;;1.20;0.80;;;;;;;;;;5091343;28;20447;-63
2021/11/21 08:44:50;;;;;;;3.07;0.90;;;;;;;;;;5086943;28;20157;-62
2021/11/21 08:47:17;;;;;;;1.43;0.70;;;;;;;;;;5086838;28;20028;-61
2021/11/21 08:49:44;;;;;;;1.10;0.60;;;;;;;;;;5086751;28;20032;-62
2021/11/21 08:52:11;;;;;;;1.70;0.83;;;;;;;;;;5086703;28;20027;-62
2021/11/21 08:54:39;;;;;;;1.93;0.80;;;;;;;;;;5091957;28;20039;-62
2021/11/21 08:57:05;;;;;;;2.43;0.90;;;;;;;;;;5092031;28;20030;-62
2021/11/21 08:59:32;;;;;;;1.10;0.60;;;;;;;;;;5092014;28;20560;-62
2021/11/21 09:01:59;;;;;;;3.20;0.83;;;;;;;;;;5092229;28;20027;-62
2021/11/21 09:04:26;;;;;;;2.57;0.80;;;;;;;;;;5092000;28;20027;-62
2021/11/21 09:06:52;;;;;;;2.67;0.93;;;;;;;;;;5086731;28;20040;-61
2021/11/21 09:09:19;;;;;;;2.23;0.63;;;;;;;;;;5086707;28;20093;-62
2021/11/21 09:11:46;;;;;;;1.73;0.60;;;;;;;;;;5086635;28;20051;-62
2021/11/21 09:14:14;;;;;;;1.87;0.63;;;;;;;;;;5086297;28;20016;-61
2021/11/21 09:16:41;;;;;;;0.80;0.50;;;;;;;;;;5091737;28;20111;-61
2021/11/21 09:19:08;;;;;;;1.30;0.70;;;;;;;;;;5091993;28;20016;-62
2021/11/21 09:21:35;;;;;;;1.13;0.57;;;;;;;;;;5091813;28;20024;-62
2021/11/21 09:24:01;;;;;;;1.77;0.90;;;;;;;;;;5093092;28;20027;-61
2021/11/21 09:26:29;;;;;;;1.33;0.60;;;;;;;;;;5096151;28;20016;-61
2021/11/21 09:28:56;;;;;;;1.67;0.70;;;;;;;;;;5090329;28;20028;-61
2021/11/21 09:31:23;;;;;;;2.00;0.50;;;;;;;;;;5090357;28;20620;-61
2021/11/21 09:33:50;;;;;;;1.00;0.70;;;;;;;;;;5090369;28;20027;-61
2021/11/21 09:36:16;;;;;;;2.20;1.00;;;;;;;;;;5089813;28;20032;-62
2021/11/21 09:38:44;;;;;;;1.33;0.70;;;;;;;;;;5094819;28;20543;-62
2021/11/21 09:41:11;;;;;;;5.23;0.80;;;;;;;;;;5095763;28;20028;-61
2021/11/21 09:43:38;;;;;;;1.07;0.70;;;;;;;;;;5095243;28;20084;-62
2021/11/21 09:46:06;;;;;;;1.30;0.50;;;;;;;;;;5095465;28;20766;-61
2021/11/21 09:48:34;;;;;;;1.03;0.63;;;;;;;;;;5095364;28;20364;-61
2021/11/21 09:51:01;;;;;;;1.40;0.47;;;;;;;;;;5090248;28;20024;-62
2021/11/21 09:53:28;;;;;;;1.13;0.77;;;;;;;;;;5090042;28;20056;-61
2021/11/21 09:55:55;;;;;;;1.07;0.77;;;;;;;;;;5089912;28;20486;-61
2021/11/21 09:58:23;;;;;;;1.00;0.60;;;;;;;;;;5089600;28;20154;-62
2021/11/21 10:00:50;;;;;;;1.80;0.63;;;;;;;;;;5094286;28;20257;-62
2021/11/21 10:03:18;;;;;;;3.23;0.70;;;;;;;;;;5094774;28;20046;-62
2021/11/21 10:05:53;;;;;;;1.23;0.73;;;;;;;;;;5095211;28;20603;-61
2021/11/21 10:08:24;;;;;;;2.15;0.70;;;;;;;;;;5095096;28;20105;-61
2021/11/21 10:10:53;;;;;;;2.40;0.70;;;;;;;;;;5094737;28;20020;-61
2021/11/21 10:13:26;;;;;;;2.10;0.90;;;;;;;;;;5089470;28;20101;-61
2021/11/21 10:15:53;;;;;;;1.00;0.50;;;;;;;;;;5089428;28;20504;-61
2021/11/21 10:18:20;;;;;;;1.20;0.77;;;;;;;;;;5089331;28;20054;-61
2021/11/21 10:20:47;;;;;;;0.93;0.63;;;;;;;;;;5089404;28;20410;-61
2021/11/21 10:23:14;;;;;;;2.57;0.90;;;;;;;;;;5093811;28;20256;-61
2021/11/21 10:25:46;;;;;;;2.03;0.60;;;;;;;;;;5094707;28;20066;-61
2021/11/21 10:28:16;;;;;;;1.10;0.60;;;;;;;;;;5094636;28;20260;-61
2021/11/21 10:31:01;;;;;;;2.83;0.70;;;;;;;;;;5094627;28;20087;-61
2021/11/21 10:33:38;;;;;;;0.88;0.60;;;;;;;;;;5093614;28;20091;-61
2021/11/21 10:36:05;;;;;;;3.60;0.87;;;;;;;;;;5088259;28;20035;-62
2021/11/21 10:38:33;;;;;;;1.47;0.60;;;;;;;;;;5089072;28;20307;-61
2021/11/21 10:41:00;;;;;;;1.33;0.73;;;;;;;;;;5088950;28;20739;-61
2021/11/21 10:43:27;;;;;;;2.27;0.87;;;;;;;;;;5089388;28;20602;-61
2021/11/21 10:45:54;;;;;;;1.30;0.50;;;;;;;;;;5093878;28;20260;-61
2021/11/21 10:48:25;;;;;;;1.10;0.70;;;;;;;;;;5094008;28;20271;-62
2021/11/21 10:50:52;;;;;;;1.87;0.73;;;;;;;;;;5094287;28;20255;-61
2021/11/21 10:53:20;;;;;;;1.57;0.40;;;;;;;;;;5094232;28;20245;-61
2021/11/21 10:55:47;;;;;;;5.93;0.80;;;;;;;;;;5092872;28;20371;-61
2021/11/21 10:58:15;;;;;;;1.43;1.00;;;;;;;;;;5088748;28;20288;-62
2021/11/21 11:00:42;;;;;;;1.83;0.87;;;;;;;;;;5088254;28;20249;-61
2021/11/21 11:03:16;;;;;;;1.67;0.60;;;;;;;;;;5088760;28;20271;-61
2021/11/21 11:05:43;;;;;;;0.85;0.65;;;;;;;;;;5089254;28;20280;-61
2021/11/21 11:08:13;;;;;;;1.30;0.70;;;;;;;;;;5093842;28;20074;-61
2021/11/21 11:10:40;;;;;;;1.73;0.80;;;;;;;;;;5094576;28;20276;-61
2021/11/21 11:13:10;;;;;;;1.23;0.70;;;;;;;;;;5093350;28;20268;-61
2021/11/21 11:15:40;;;;;;;1.03;0.63;;;;;;;;;;5093726;28;20299;-61
2021/11/21 11:18:12;;;;;;;2.07;1.03;;;;;;;;;;5091913;28;20699;-61
2021/11/21 11:20:46;;;;;;;4.93;2.23;;;;;;;;;;5088357;28;20278;-61
2021/11/21 11:23:16;;;;;;;2.33;1.57;;;;;;;;;;5088329;28;20260;-61
2021/11/21 11:25:44;;;;;;;3.70;2.00;;;;;;;;;;5088334;28;20270;-61
2021/11/21 11:28:25;;;;;;;4.57;2.20;;;;;;;;;;5089335;28;20263;-61
2021/11/21 11:30:53;;;;;;;6.00;2.93;;;;;;;;;;5093529;28;20255;-61
2021/11/21 11:33:22;;;;;;;8.53;4.07;;;;;;;;;;5093550;28;20260;-61
2021/11/21 11:35:49;;;;;;;21.03;13.17;;;;;;;;;;5092917;28;20287;-61
2021/11/21 11:38:21;;;;;;;24.47;15.63;;;;;;;;;;5093319;28;20766;-61
2021/11/21 11:40:50;;;;;;;14.80;9.53;;;;;;;;;;5090960;28;20309;-61
2021/11/21 11:43:17;;;;;;;9.83;6.23;;;;;;;;;;5087835;28;20265;-62
2021/11/21 11:45:45;;;;;;;6.40;3.80;;;;;;;;;;5087305;28;20268;-61
2021/11/21 11:48:27;;;;;;;4.50;2.90;;;;;;;;;;5087615;28;20329;-61
2021/11/21 11:50:54;;;;;;;11.73;5.63;;;;;;;;;;5090248;28;20347;-61
2021/11/21 11:53:39;;;;;;;10.67;5.77;;;;;;;;;;5093118;28;20265;-61
2021/11/21 11:56:10;;;;;;;10.98;6.55;;;;;;;;;;5093128;28;20778;-61
2021/11/21 11:58:47;;;;;;;11.57;7.63;;;;;;;;;;5092975;28;20048;-61
2021/11/21 12:01:14;;;;;;;7.67;4.90;;;;;;;;;;5092965;28;20259;-61
2021/11/21 12:03:42;;;;;;;6.77;3.33;;;;;;;;;;5088840;28;20317;-61
2021/11/21 12:06:09;;;;;;;6.83;4.20;;;;;;;;;;5087480;28;20665;-61
2021/11/21 12:08:36;;;;;;;5.67;3.13;;;;;;;;;;5087161;28;20309;-61
2021/11/21 12:11:02;;;;;;;4.63;2.40;;;;;;;;;;5087451;28;20261;-61
2021/11/21 12:13:34;;;;;;;7.13;3.07;;;;;;;;;;5090742;28;20264;-61
2021/11/21 12:16:16;;;;;;;5.97;3.37;;;;;;;;;;5092056;28;20296;-61
2021/11/21 12:18:53;;;;;;;4.43;2.80;;;;;;;;;;5092639;28;20260;-61
2021/11/21 12:21:37;;;;;;;4.13;2.27;;;;;;;;;;5092488;28;20249;-61
2021/11/21 12:24:05;;;;;;;5.00;2.37;;;;;;;;;;5092480;28;20264;-61
2021/11/21 12:26:39;;;;;;;2.53;1.60;;;;;;;;;;5087166;28;20751;-61
2021/11/21 12:29:08;;;;;;;3.27;2.00;;;;;;;;;;5086789;28;20287;-61
2021/11/21 12:31:40;;;;;;;3.90;2.33;;;;;;;;;;5087201;28;20263;-61
2021/11/21 12:34:25;;;;;;;3.63;2.03;;;;;;;;;;5086980;28;20260;-61
2021/11/21 12:37:11;;;;;;;5.93;1.80;;;;;;;;;;5092478;28;20268;-61
2021/11/21 12:39:39;;;;;;;3.87;2.00;;;;;;;;;;5092493;28;20027;-61
2021/11/21 12:42:13;;;;;;;3.73;2.30;;;;;;;;;;5092363;28;20766;-61
2021/11/21 12:44:41;;;;;;;3.70;1.90;;;;;;;;;;5092341;28;20589;-60
2021/11/21 12:47:09;;;;;;;2.90;1.30;;;;;;;;;;5089621;28;20352;-61
2021/11/21 12:49:37;;;;;;;2.80;1.30;;;;;;;;;;5086827;28;20280;-61
2021/11/21 12:52:09;;;;;;;3.47;1.33;;;;;;;;;;5086925;28;20257;-61
2021/11/21 12:54:36;;;;;;;4.17;1.37;;;;;;;;;;5086661;28;20257;-61
2021/11/21 12:57:02;;;;;;;1.60;1.00;;;;;;;;;;5088756;28;20598;-61
2021/11/21 12:59:49;;;;;;;2.23;1.23;;;;;;;;;;5094174;28;20256;-61
2021/11/21 13:02:16;;;;;;;2.00;1.13;;;;;;;;;;5096335;28;20253;-61
2021/11/21 13:04:48;;;;;;;1.93;1.17;;;;;;;;;;5096224;28;20278;-62
2021/11/21 13:07:25;;;;;;;2.03;1.13;;;;;;;;;;5096284;28;20330;-61
2021/11/21 13:10:10;;;;;;;1.63;1.03;;;;;;;;;;5092747;28;20272;-61
2021/11/21 13:12:38;;;;;;;3.10;1.10;;;;;;;;;;5090592;28;20339;-61
2021/11/21 13:15:10;;;;;;;4.67;1.30;;;;;;;;;;5090665;28;20024;-61
2021/11/21 13:17:37;;;;;;;1.90;1.10;;;;;;;;;;5070320;28;20261;-61
2021/11/21 13:20:05;;;;;;;1.70;0.93;;;;;;;;;;5076725;28;20769;-61
2021/11/21 13:22:47;;;;;;;1.87;1.23;;;;;;;;;;5096043;28;20303;-61
2021/11/21 13:25:34;;;;;;;2.13;1.27;;;;;;;;;;5096060;28;20263;-60
2021/11/21 13:28:19;;;;;;;2.53;1.40;;;;;;;;;;5095658;28;20263;-61
2021/11/21 13:30:46;;;;;;;4.32;1.33;;;;;;;;;;5095319;28;20292;-62
2021/11/21 13:33:14;;;;;;;2.80;1.40;;;;;;;;;;5090399;28;20020;-61
2021/11/21 13:35:41;;;;;;;1.77;1.07;;;;;;;;;;5090433;28;20796;-61
2021/11/21 13:38:08;;;;;;;3.30;0.93;;;;;;;;;;5089985;28;20261;-61
2021/11/21 13:40:35;;;;;;;2.47;1.10;;;;;;;;;;5090279;28;20363;-61
2021/11/21 13:43:05;;;;;;;2.90;1.50;;;;;;;;;;5095477;28;20503;-62
2021/11/21 13:45:32;;;;;;;4.37;2.07;;;;;;;;;;5095454;28;20026;-61
2021/11/21 13:48:02;;;;;;;4.40;1.87;;;;;;;;;;5095506;28;20099;-61
2021/11/21 13:50:30;;;;;;;3.20;1.73;;;;;;;;;;5094590;28;20024;-61
2021/11/21 13:52:58;;;;;;;4.33;2.07;;;;;;;;;;5094794;28;20024;-61
2021/11/21 13:55:25;;;;;;;6.87;1.50;;;;;;;;;;5089900;28;20501;-61
2021/11/21 13:57:56;;;;;;;6.60;1.20;;;;;;;;;;5089996;28;20542;-61
2021/11/21 14:00:27;;;;;;;2.70;1.10;;;;;;;;;;5089885;28;20047;-62
2021/11/21 14:03:04;;;;;;;2.23;1.00;;;;;;;;;;5089771;28;20020;-61
2021/11/21 14:05:31;;;;;;;3.77;1.50;;;;;;;;;;5095248;28;20103;-61
2021/11/21 14:08:07;;;;;;;2.43;1.40;;;;;;;;;;5095039;28;20020;-61
2021/11/21 14:10:35;;;;;;;5.47;1.53;;;;;;;;;;5093677;28;20081;-61
2021/11/21 14:13:17;;;;;;;8.57;2.37;;;;;;;;;;5094788;28;20044;-62
2021/11/21 14:15:44;;;;;;;2.77;1.43;;;;;;;;;;5092619;28;20117;-61
2021/11/21 14:18:11;;;;;;;3.20;1.67;;;;;;;;;;5089579;28;20032;-61
2021/11/21 14:20:43;;;;;;;3.97;1.93;;;;;;;;;;5088880;28;20020;-62
2021/11/21 14:23:12;;;;;;;5.83;2.30;;;;;;;;;;5089363;28;20051;-61
2021/11/21 14:25:40;;;;;;;4.70;2.30;;;;;;;;;;5090899;28;20024;-61
2021/11/21 14:28:10;;;;;;;5.83;2.30;;;;;;;;;;5094570;28;20020;-61
2021/11/21 14:30:40;;;;;;;5.57;2.53;;;;;;;;;;5094773;28;20091;-62
2021/11/21 14:33:20;;;;;;;6.30;2.60;;;;;;;;;;5094585;28;20020;-61
2021/11/21 14:35:48;;;;;;;6.63;2.23;;;;;;;;;;5093928;28;20093;-63
2021/11/21 14:38:15;;;;;;;5.57;1.93;;;;;;;;;;5091738;28;20110;-62
2021/11/21 14:41:01;;;;;;;6.47;2.23;;;;;;;;;;5089145;28;20115;-61
2021/11/21 14:43:29;;;;;;;6.87;2.60;;;;;;;;;;5088876;28;20032;-62
2021/11/21 14:45:55;;;;;;;4.50;2.33;;;;;;;;;;5088621;28;20081;-62
2021/11/21 14:48:30;;;;;;;4.33;2.20;;;;;;;;;;5091996;28;20030;-62
2021/11/21 14:50:56;;;;;;;8.55;2.00;;;;;;;;;;5093572;28;20016;-62